Time;durP1;ratioP1;P1;durP2;ratioP2;P2;SDS_P1;SDS_P2;PMS_P1;PMS_P2;Temp;Humidity;BMP_temperature;BMP_pressure;BME280_temperature;BME280_humidity;BME280_pressure;Samples;Min_cycle;Max_cycle;Signal;HPM_P1;HPM_P2
2023/04/16 00:00:35;;;;;;;28.33;16.65;;;;;;;10.22;100.00;100709.88;5169176;28;20040;-71
2023/04/16 00:03:06;;;;;;;30.63;16.42;;;;;;;10.12;100.00;100715.41;5148238;28;20117;-70
2023/04/16 00:05:36;;;;;;;28.20;16.17;;;;;;;10.11;100.00;100716.31;5162987;28;20455;-74
2023/04/16 00:08:07;;;;;;;29.02;17.02;;;;;;;10.08;100.00;100721.63;5155555;28;20109;-72
2023/04/16 00:10:37;;;;;;;26.98;16.10;;;;;;;10.18;100.00;100718.69;5164277;28;20400;-71
2023/04/16 00:13:07;;;;;;;29.17;16.95;;;;;;;10.16;100.00;100711.81;5163485;28;20029;-72
2023/04/16 00:15:38;;;;;;;26.48;15.98;;;;;;;10.11;100.00;100714.56;5150760;28;20030;-73
2023/04/16 00:18:08;;;;;;;29.20;15.85;;;;;;;10.12;100.00;100718.88;5144829;28;20542;-70
2023/04/16 00:20:38;;;;;;;28.58;15.93;;;;;;;9.89;100.00;100725.69;5164663;28;20101;-72
2023/04/16 00:23:09;;;;;;;29.35;16.48;;;;;;;9.91;100.00;100714.31;5160981;28;20033;-71
2023/04/16 00:25:39;;;;;;;30.88;16.52;;;;;;;9.90;100.00;100720.44;5147450;28;20599;-71
2023/04/16 00:28:09;;;;;;;32.17;17.00;;;;;;;9.86;100.00;100720.56;5149196;28;20504;-72
2023/04/16 00:30:40;;;;;;;32.25;16.85;;;;;;;9.84;100.00;100719.75;5167460;28;20392;-72
2023/04/16 00:33:10;;;;;;;29.05;16.63;;;;;;;9.71;100.00;100728.84;5130537;28;20373;-71
2023/04/16 00:35:40;;;;;;;29.45;16.58;;;;;;;9.74;100.00;100736.56;5146112;28;20385;-71
2023/04/16 00:38:11;;;;;;;28.65;17.15;;;;;;;9.73;100.00;100737.47;5166923;28;20109;-71
2023/04/16 00:40:41;;;;;;;30.45;17.15;;;;;;;9.70;100.00;100733.22;5162673;28;20026;-71
2023/04/16 00:43:21;;;;;;;32.35;16.52;;;;;;;9.60;100.00;100736.13;5169617;28;20535;-71
2023/04/16 00:45:55;;;;;;;29.15;16.40;;;;;;;9.65;100.00;100729.03;5150555;28;20034;-71
2023/04/16 00:48:26;;;;;;;31.80;16.40;;;;;;;9.60;100.00;100737.00;5168042;28;20030;-72
2023/04/16 00:50:59;;;;;;;31.50;16.67;;;;;;;9.59;100.00;100740.50;5163863;28;20026;-71
2023/04/16 00:53:30;;;;;;;27.90;16.40;;;;;;;9.50;100.00;100739.91;5143594;28;20366;-71
2023/04/16 00:56:05;;;;;;;31.98;15.50;;;;;;;9.40;100.00;100743.66;5162843;28;20030;-71
2023/04/16 00:58:37;;;;;;;34.17;16.88;;;;;;;9.41;100.00;100743.63;5168658;28;20112;-71
2023/04/16 01:01:08;;;;;;;31.52;16.60;;;;;;;9.44;100.00;100746.16;5151566;28;20124;-71
2023/04/16 01:03:48;;;;;;;33.15;16.35;;;;;;;9.47;100.00;100747.84;5170259;28;20109;-72
2023/04/16 01:06:18;;;;;;;30.83;16.77;;;;;;;9.38;100.00;100748.94;5163750;28;20032;-71
2023/04/16 01:08:49;;;;;;;30.45;17.08;;;;;;;9.45;100.00;100753.06;5166202;28;20036;-71
2023/04/16 01:11:19;;;;;;;32.95;16.42;;;;;;;9.43;100.00;100761.84;5146183;28;20113;-73
2023/04/16 01:13:50;;;;;;;34.28;17.15;;;;;;;9.29;100.00;100769.22;5188396;23;21888;-73
2023/04/16 01:16:20;;;;;;;37.08;17.60;;;;;;;9.29;100.00;100769.22;5178280;28;20528;-72
2023/04/16 01:18:51;;;;;;;32.15;16.60;;;;;;;9.30;100.00;100768.31;5170410;28;20388;-72
2023/04/16 01:21:21;;;;;;;35.28;17.15;;;;;;;9.15;100.00;100766.94;5185339;28;20029;-72
2023/04/16 01:23:51;;;;;;;31.88;16.73;;;;;;;9.17;100.00;100772.13;5189074;28;20030;-72
2023/04/16 01:26:22;;;;;;;31.05;16.73;;;;;;;9.17;100.00;100769.53;5158605;28;20022;-72
2023/04/16 01:28:52;;;;;;;33.20;17.00;;;;;;;9.16;100.00;100773.88;5166870;28;20042;-72
2023/04/16 01:31:22;;;;;;;35.03;15.98;;;;;;;9.06;100.00;100781.16;5158506;28;20033;-72
2023/04/16 01:33:52;;;;;;;39.50;17.70;;;;;;;9.06;100.00;100781.16;5159895;28;20026;-72
2023/04/16 01:36:23;;;;;;;31.83;16.80;;;;;;;9.01;100.00;100783.88;5172094;28;20446;-73
2023/04/16 01:38:53;;;;;;;30.80;16.42;;;;;;;9.05;100.00;100779.44;5163606;28;20085;-72
2023/04/16 01:41:23;;;;;;;32.35;16.38;;;;;;;9.07;100.00;100778.47;5169022;28;20018;-72
2023/04/16 01:43:54;;;;;;;34.28;17.55;;;;;;;9.03;100.00;100791.66;5150635;28;20030;-73
2023/04/16 01:46:30;;;;;;;31.10;16.73;;;;;;;9.08;100.00;100790.63;5169752;28;20030;-73
2023/04/16 01:49:01;;;;;;;41.25;17.70;;;;;;;9.07;100.00;100794.13;5166585;28;20049;-72
2023/04/16 01:51:32;;;;;;;33.78;17.10;;;;;;;9.05;100.00;100788.09;5175339;28;20077;-72
2023/04/16 01:54:02;;;;;;;34.70;17.27;;;;;;;8.89;100.00;100781.56;5168245;28;20085;-70
2023/04/16 01:56:32;;;;;;;37.15;18.15;;;;;;;8.89;100.00;100786.78;5153746;28;20037;-71
2023/04/16 01:59:03;;;;;;;37.03;17.98;;;;;;;8.87;100.00;100788.56;5174613;28;20026;-72
2023/04/16 02:01:33;;;;;;;36.20;16.40;;;;;;;8.82;100.00;100780.03;5164283;28;20030;-72
2023/04/16 02:04:04;;;;;;;33.22;16.75;;;;;;;8.91;100.00;100782.38;5164330;28;20369;-72
2023/04/16 02:06:34;;;;;;;33.42;16.63;;;;;;;8.97;100.00;100777.03;5171782;28;20057;-72
2023/04/16 02:09:04;;;;;;;36.95;17.50;;;;;;;9.03;100.00;100787.28;5155008;28;20099;-72
2023/04/16 02:11:35;;;;;;;33.17;16.13;;;;;;;9.04;100.00;100778.56;5165836;28;20488;-72
2023/04/16 02:14:07;;;;;;;32.72;16.73;;;;;;;9.06;100.00;100784.59;5153175;28;20030;-72
2023/04/16 02:16:37;;;;;;;37.88;18.52;;;;;;;9.08;100.00;100784.56;5141667;28;20022;-72
2023/04/16 02:19:08;;;;;;;39.50;18.15;;;;;;;8.97;100.00;100791.78;5169509;28;20418;-72
2023/04/16 02:21:38;;;;;;;39.17;17.70;;;;;;;8.81;100.00;100796.56;5175683;28;20029;-73
2023/04/16 02:24:08;;;;;;;37.00;17.05;;;;;;;8.85;100.00;100792.09;5168142;28;20604;-71
2023/04/16 02:26:39;;;;;;;36.72;17.35;;;;;;;8.85;100.00;100790.34;5156276;28;20033;-71
2023/04/16 02:29:10;;;;;;;36.53;17.42;;;;;;;8.92;100.00;100794.50;5174530;28;20100;-72
2023/04/16 02:31:40;;;;;;;34.25;17.20;;;;;;;8.79;100.00;100800.06;5178785;28;20379;-71
2023/04/16 02:34:11;;;;;;;35.70;16.95;;;;;;;8.78;100.00;100803.56;5159131;28;20053;-72
2023/04/16 02:36:41;;;;;;;33.25;17.20;;;;;;;8.70;100.00;100808.97;5171652;28;20026;-72
2023/04/16 02:39:11;;;;;;;32.75;16.00;;;;;;;8.70;100.00;100803.75;5176052;28;20610;-73
2023/04/16 02:41:41;;;;;;;37.80;17.25;;;;;;;8.72;100.00;100817.59;5161895;28;20069;-72
2023/04/16 02:44:12;;;;;;;35.35;17.10;;;;;;;8.70;100.00;100808.13;5148707;28;20108;-72
2023/04/16 02:46:42;;;;;;;34.20;16.48;;;;;;;8.85;100.00;100815.56;5174509;28;20466;-72
2023/04/16 02:49:12;;;;;;;34.13;17.10;;;;;;;8.91;100.00;100812.81;5176286;28;20025;-73
2023/04/16 02:51:43;;;;;;;33.80;16.85;;;;;;;8.81;100.00;100822.59;5169491;28;20021;-72
2023/04/16 02:54:13;;;;;;;32.63;16.25;;;;;;;8.78;100.00;100820.09;5155290;28;20025;-73
2023/04/16 02:56:43;;;;;;;37.45;17.05;;;;;;;8.86;100.00;100820.75;5166948;28;20022;-72
2023/04/16 02:59:14;;;;;;;41.28;17.65;;;;;;;8.84;100.00;100825.13;5177447;28;20502;-73
2023/04/16 03:01:44;;;;;;;37.05;18.63;;;;;;;8.87;100.00;100826.81;5179308;28;20022;-73
2023/04/16 03:04:14;;;;;;;40.08;17.55;;;;;;;8.77;100.00;100826.19;5174373;28;20038;-73
2023/04/16 03:06:45;;;;;;;34.65;16.65;;;;;;;8.73;100.00;100821.91;5165280;28;20034;-73
2023/04/16 03:09:15;;;;;;;37.95;17.67;;;;;;;8.68;100.00;100826.41;5159043;28;20023;-73
2023/04/16 03:11:45;;;;;;;38.55;17.85;;;;;;;8.79;100.00;100820.91;5151001;28;20030;-72
2023/04/16 03:14:16;;;;;;;34.13;16.65;;;;;;;8.77;100.00;100830.53;5170923;28;20289;-72
2023/04/16 03:16:46;;;;;;;33.63;16.08;;;;;;;8.66;100.00;100825.56;5157153;28;20029;-72
2023/04/16 03:19:16;;;;;;;33.30;17.10;;;;;;;8.68;100.00;100834.22;5176038;28;20054;-73
2023/04/16 03:21:47;;;;;;;34.75;16.02;;;;;;;8.75;100.00;100832.31;5149592;28;20026;-73
2023/04/16 03:24:17;;;;;;;35.47;17.33;;;;;;;8.72;100.00;100830.63;5160978;28;20028;-73
2023/04/16 03:26:48;;;;;;;33.85;16.48;;;;;;;8.69;100.00;100837.69;5179541;28;20022;-72
2023/04/16 03:29:18;;;;;;;35.60;17.08;;;;;;;8.70;100.00;100837.63;5178566;28;20050;-72
2023/04/16 03:31:48;;;;;;;35.83;16.95;;;;;;;8.65;100.00;100843.84;5176612;28;20041;-71
2023/04/16 03:34:18;;;;;;;36.05;16.63;;;;;;;8.58;100.00;100840.50;5172861;28;20095;-72
2023/04/16 03:36:49;;;;;;;34.72;17.70;;;;;;;8.65;100.00;100839.50;5181185;28;20026;-72
2023/04/16 03:39:19;;;;;;;31.42;16.25;;;;;;;8.59;100.00;100844.00;5147649;28;20487;-72
2023/04/16 03:41:50;;;;;;;39.00;16.13;;;;;;;8.66;100.00;100842.94;5170203;28;20320;-72
2023/04/16 03:44:20;;;;;;;34.10;15.63;;;;;;;8.80;100.00;100846.97;5175222;28;20026;-72
2023/04/16 03:46:50;;;;;;;32.85;16.83;;;;;;;8.70;100.00;100848.06;5182938;28;20065;-72
2023/04/16 03:49:20;;;;;;;32.95;15.45;;;;;;;8.74;100.00;100854.06;5171481;28;20550;-72
2023/04/16 03:51:51;;;;;;;29.95;15.55;;;;;;;8.73;100.00;100849.75;5181675;28;20029;-72
2023/04/16 03:54:21;;;;;;;29.77;15.55;;;;;;;8.66;100.00;100849.03;5161142;28;20080;-72
2023/04/16 03:56:52;;;;;;;37.20;16.02;;;;;;;8.77;100.00;100857.47;5178956;28;20387;-72
2023/04/16 03:59:22;;;;;;;38.03;15.45;;;;;;;8.66;100.00;100853.38;5182817;28;20862;-71
2023/04/16 04:01:52;;;;;;;30.92;15.77;;;;;;;8.76;100.00;100855.72;5175921;28;20046;-73
2023/04/16 04:04:22;;;;;;;28.70;15.05;;;;;;;8.73;100.00;100854.97;5176966;28;20053;-71
2023/04/16 04:06:53;;;;;;;29.08;14.57;;;;;;;8.72;100.00;100848.88;5158829;28;20109;-70
2023/04/16 04:09:23;;;;;;;36.35;16.25;;;;;;;8.73;100.00;100855.78;5164662;28;20022;-72
2023/04/16 04:11:53;;;;;;;30.15;15.27;;;;;;;8.72;100.00;100858.47;5176203;28;20252;-71
2023/04/16 04:14:24;;;;;;;34.58;16.05;;;;;;;8.57;100.00;100862.25;5176046;28;20037;-73
2023/04/16 04:16:54;;;;;;;36.95;16.48;;;;;;;8.62;100.00;100864.75;5166447;28;20451;-70
2023/04/16 04:19:24;;;;;;;35.80;16.00;;;;;;;8.55;100.00;100866.66;5153447;28;20023;-73
2023/04/16 04:21:55;;;;;;;35.05;16.08;;;;;;;8.38;100.00;100871.38;5154370;28;20419;-72
2023/04/16 04:24:25;;;;;;;34.72;17.40;;;;;;;8.35;100.00;100874.06;5167622;28;20033;-72
2023/04/16 04:26:56;;;;;;;35.17;16.48;;;;;;;8.44;100.00;100879.06;5175144;28;20061;-72
2023/04/16 04:29:26;;;;;;;36.38;17.30;;;;;;;8.54;100.00;100880.56;5139913;28;20073;-72
2023/04/16 04:31:57;;;;;;;31.27;16.20;;;;;;;8.36;100.00;100870.56;5173570;28;20029;-71
2023/04/16 04:34:28;;;;;;;30.88;15.88;;;;;;;8.55;100.00;100871.00;5155700;28;20517;-70
2023/04/16 04:36:58;;;;;;;38.40;17.00;;;;;;;8.46;100.00;100877.28;5163246;28;20025;-72
2023/04/16 04:39:28;;;;;;;37.55;18.20;;;;;;;8.56;100.00;100876.16;5174992;28;20028;-72
2023/04/16 04:41:59;;;;;;;31.42;16.50;;;;;;;8.55;100.00;100879.66;5142098;28;20034;-72
2023/04/16 04:44:29;;;;;;;37.42;16.75;;;;;;;8.62;100.00;100878.66;5163222;28;20022;-73
2023/04/16 04:46:59;;;;;;;34.17;16.25;;;;;;;8.63;100.00;100877.75;5161037;28;20030;-72
2023/04/16 04:49:30;;;;;;;34.47;16.52;;;;;;;8.57;100.00;100890.91;5162964;28;20120;-72
2023/04/16 04:52:01;;;;;;;37.13;15.57;;;;;;;8.67;100.00;100884.59;5153797;28;20038;-72
2023/04/16 04:54:32;;;;;;;33.13;15.50;;;;;;;8.62;100.00;100891.69;5152850;28;20026;-72
2023/04/16 04:57:02;;;;;;;32.95;15.43;;;;;;;8.61;100.00;100891.69;5152129;28;20038;-72
2023/04/16 04:59:32;;;;;;;32.40;15.38;;;;;;;8.59;100.00;100889.13;5146134;28;20104;-72
2023/04/16 05:02:03;;;;;;;36.03;16.48;;;;;;;8.61;100.00;100895.19;5155782;28;20029;-72
2023/04/16 05:04:33;;;;;;;33.25;15.40;;;;;;;8.59;100.00;100894.31;5156612;28;20105;-72
2023/04/16 05:07:03;;;;;;;31.27;15.27;;;;;;;8.59;100.00;100898.69;5151530;28;20021;-72
2023/04/16 05:09:34;;;;;;;32.67;14.98;;;;;;;8.63;100.00;100897.72;5167111;28;20037;-72
2023/04/16 05:12:04;;;;;;;32.42;15.27;;;;;;;8.63;100.00;100902.94;5156139;28;20040;-70
2023/04/16 05:14:35;;;;;;;31.15;15.18;;;;;;;8.48;100.00;100904.16;5168550;28;20045;-70
2023/04/16 05:17:06;;;;;;;34.08;15.93;;;;;;;8.53;100.00;100907.50;5162188;28;20037;-70
2023/04/16 05:19:37;;;;;;;31.13;15.00;;;;;;;8.47;100.00;100912.84;5162274;28;20104;-71
2023/04/16 05:22:07;;;;;;;31.50;14.85;;;;;;;8.46;100.00;100918.97;5160100;28;20638;-73
2023/04/16 05:24:37;;;;;;;30.10;15.48;;;;;;;8.47;100.00;100923.28;5168687;28;20104;-72
2023/04/16 05:27:08;;;;;;;28.38;14.18;;;;;;;8.54;100.00;100922.25;5135378;28;20073;-72
2023/04/16 05:29:38;;;;;;;30.65;15.98;;;;;;;8.57;100.00;100924.78;5149053;28;20501;-72
2023/04/16 05:32:08;;;;;;;32.17;15.25;;;;;;;8.62;100.00;100933.38;5164862;28;20033;-71
2023/04/16 05:34:39;;;;;;;31.95;15.27;;;;;;;8.50;100.00;100920.59;5157191;28;20076;-73
2023/04/16 05:37:09;;;;;;;31.85;14.85;;;;;;;8.65;100.00;100933.28;5159209;28;20033;-70
2023/04/16 05:39:39;;;;;;;27.60;14.25;;;;;;;8.52;100.00;100936.22;5142919;28;20033;-72
2023/04/16 05:42:10;;;;;;;29.55;14.27;;;;;;;8.63;100.00;100931.59;5158306;28;20026;-72
2023/04/16 05:44:40;;;;;;;30.58;15.13;;;;;;;8.53;100.00;100941.38;5157074;28;20404;-69
2023/04/16 05:47:10;;;;;;;25.92;14.07;;;;;;;8.57;100.00;100943.00;5162928;28;20026;-71
2023/04/16 05:49:41;;;;;;;29.85;14.70;;;;;;;8.67;100.00;100949.75;5165060;28;20052;-71
2023/04/16 05:52:11;;;;;;;29.50;14.48;;;;;;;8.62;100.00;100951.59;5160119;28;22046;-72
2023/04/16 05:54:41;;;;;;;29.17;15.00;;;;;;;8.50;100.00;100946.66;5153264;28;20033;-72
2023/04/16 05:57:12;;;;;;;34.30;15.52;;;;;;;8.51;100.00;100950.97;5147418;28;20046;-69
2023/04/16 05:59:43;;;;;;;34.33;15.48;;;;;;;8.54;100.00;100958.69;5166721;28;20026;-71
2023/04/16 06:02:13;;;;;;;31.52;15.27;;;;;;;8.58;100.00;100955.13;5163115;28;20034;-72
2023/04/16 06:04:43;;;;;;;31.42;15.02;;;;;;;8.64;100.00;100960.25;5147316;28;20022;-72
2023/04/16 06:07:14;;;;;;;30.48;15.13;;;;;;;8.69;100.00;100955.78;5144717;28;20395;-70
2023/04/16 06:09:44;;;;;;;32.63;15.18;;;;;;;8.60;100.00;100961.19;5158980;28;20060;-71
2023/04/16 06:12:15;;;;;;;32.00;15.50;;;;;;;8.56;100.00;100962.13;5160370;28;20030;-71
2023/04/16 06:14:45;;;;;;;32.35;16.60;;;;;;;8.60;100.00;100963.81;5156082;28;20048;-72
2023/04/16 06:17:15;;;;;;;37.80;16.13;;;;;;;8.53;100.00;100962.19;5167302;28;20049;-70
2023/04/16 06:19:46;;;;;;;36.38;15.80;;;;;;;8.59;100.00;100967.28;5155729;28;20057;-71
2023/04/16 06:22:16;;;;;;;34.20;16.42;;;;;;;8.62;100.00;100964.63;5159127;28;20096;-72
2023/04/16 06:24:46;;;;;;;33.08;15.77;;;;;;;8.68;100.00;100969.69;5166626;28;20388;-71
2023/04/16 06:27:17;;;;;;;32.50;15.43;;;;;;;8.57;100.00;100974.25;5167881;28;20388;-71
2023/04/16 06:29:48;;;;;;;31.67;14.82;;;;;;;8.44;100.00;100978.03;5160943;28;20054;-71
2023/04/16 06:32:18;;;;;;;33.45;15.88;;;;;;;8.51;100.00;100982.22;5150893;28;20053;-72
2023/04/16 06:34:49;;;;;;;38.47;16.05;;;;;;;8.65;100.00;100985.41;5152349;28;20037;-70
2023/04/16 06:37:19;;;;;;;38.75;17.13;;;;;;;8.61;100.00;100988.97;5135365;28;20026;-71
2023/04/16 06:39:50;;;;;;;35.05;16.20;;;;;;;8.65;100.00;100990.59;5147642;28;20058;-71
2023/04/16 06:42:20;;;;;;;34.22;16.92;;;;;;;8.66;100.00;100987.09;5145814;28;20038;-72
2023/04/16 06:44:50;;;;;;;42.47;17.00;;;;;;;8.73;100.00;100985.22;5162536;28;20447;-71
2023/04/16 06:47:21;;;;;;;37.10;16.85;;;;;;;8.78;100.00;100991.19;5156701;28;20424;-71
2023/04/16 06:49:51;;;;;;;31.77;15.93;;;;;;;8.78;100.00;100992.06;5156728;28;20025;-71
2023/04/16 06:52:21;;;;;;;35.30;16.40;;;;;;;8.67;100.00;100991.44;5140522;28;20664;-72
2023/04/16 06:54:52;;;;;;;42.63;15.98;;;;;;;8.73;100.00;100999.09;5157761;28;20535;-72
2023/04/16 06:57:22;;;;;;;36.28;16.70;;;;;;;8.75;100.00;100999.09;5166205;28;20029;-71
2023/04/16 06:59:52;;;;;;;33.80;16.10;;;;;;;8.73;100.00;101000.88;5160836;28;20018;-71
2023/04/16 07:02:23;;;;;;;36.63;15.95;;;;;;;8.72;100.00;101001.75;5155823;28;20423;-71
2023/04/16 07:05:02;;;;;;;38.55;15.73;;;;;;;8.78;100.00;101005.09;5159475;28;20376;-72
2023/04/16 07:07:33;;;;;;;32.60;15.65;;;;;;;8.85;100.00;101005.78;5155331;28;20246;-72
2023/04/16 07:10:04;;;;;;;33.60;15.93;;;;;;;8.84;100.00;101004.94;5163194;28;20035;-71
2023/04/16 07:12:35;;;;;;;37.15;15.93;;;;;;;8.74;100.00;101006.03;5164111;28;20030;-71
2023/04/16 07:15:06;;;;;;;34.70;15.27;;;;;;;8.78;100.00;101007.69;5194679;23;20061;-76
2023/04/16 07:17:36;;;;;;;33.65;15.30;;;;;;;8.82;100.00;101011.94;5202719;28;20033;-74
2023/04/16 07:20:07;;;;;;;34.40;15.65;;;;;;;8.82;100.00;101018.91;5203392;28;21049;-73
2023/04/16 07:22:37;;;;;;;33.78;15.40;;;;;;;8.94;100.00;101016.03;5192166;28;20041;-77
2023/04/16 07:25:08;;;;;;;38.10;16.00;;;;;;;8.90;100.00;101014.41;5181536;28;20390;-77
2023/04/16 07:27:38;;;;;;;33.67;15.23;;;;;;;8.91;100.00;101022.16;5164285;28;20361;-77
2023/04/16 07:30:09;;;;;;;34.95;16.17;;;;;;;8.85;100.00;101018.81;5170964;28;20414;-77
2023/04/16 07:32:39;;;;;;;35.80;15.27;;;;;;;8.69;100.00;101020.06;5143647;28;20075;-77
2023/04/16 07:35:10;;;;;;;34.20;15.32;;;;;;;8.69;100.00;101025.28;5169955;28;20040;-77
2023/04/16 07:37:40;;;;;;;33.80;14.82;;;;;;;8.78;100.00;101025.94;5172205;28;20028;-77
2023/04/16 07:40:11;;;;;;;32.08;14.38;;;;;;;8.79;100.00;101030.25;5159238;28;20040;-78
2023/04/16 07:42:41;;;;;;;32.10;15.10;;;;;;;8.86;100.00;101034.44;5181430;28;20026;-77
2023/04/16 07:45:12;;;;;;;33.88;15.52;;;;;;;8.86;100.00;101031.84;5176558;28;20772;-77
2023/04/16 07:47:42;;;;;;;31.63;14.65;;;;;;;8.86;100.00;101034.44;5178441;28;20550;-77
2023/04/16 07:50:13;;;;;;;29.77;13.85;;;;;;;8.95;100.00;101036.88;5153494;28;20045;-78
2023/04/16 07:52:44;;;;;;;25.23;13.43;;;;;;;8.99;100.00;101041.13;5173883;28;20060;-78
2023/04/16 07:55:14;;;;;;;28.00;14.48;;;;;;;9.02;100.00;101034.97;5175277;28;20402;-76
2023/04/16 07:57:44;;;;;;;31.10;14.68;;;;;;;8.97;100.00;101042.03;5185295;28;20025;-77
2023/04/16 08:00:15;;;;;;;38.55;15.13;;;;;;;8.91;100.00;101040.41;5173542;28;20037;-77
2023/04/16 08:02:45;;;;;;;27.52;14.38;;;;;;;8.87;100.00;101041.38;5161977;28;20785;-74
2023/04/16 08:05:16;;;;;;;30.23;13.68;;;;;;;8.96;100.00;101045.53;5166652;28;20285;-77
2023/04/16 08:07:46;;;;;;;26.35;13.25;;;;;;;8.92;100.00;101052.53;5169850;28;20061;-77
2023/04/16 08:10:16;;;;;;;31.73;14.27;;;;;;;8.95;100.00;101055.13;5176109;28;20050;-77
2023/04/16 08:12:47;;;;;;;29.40;13.93;;;;;;;8.96;100.00;101054.22;5168842;28;20044;-74
2023/04/16 08:15:17;;;;;;;29.35;13.60;;;;;;;8.92;100.00;101064.75;5155558;28;20018;-77
2023/04/16 08:17:47;;;;;;;26.38;13.32;;;;;;;9.01;100.00;101070.63;5171762;28;20032;-73
2023/04/16 08:20:18;;;;;;;29.95;14.40;;;;;;;9.15;100.00;101071.19;5176888;28;20083;-77
2023/04/16 08:22:48;;;;;;;29.00;12.85;;;;;;;9.10;100.00;101065.19;5164748;28;20029;-73
2023/04/16 08:25:19;;;;;;;25.90;12.77;;;;;;;9.18;100.00;101078.94;5176720;28;20030;-77
2023/04/16 08:27:50;;;;;;;25.25;12.77;;;;;;;9.13;100.00;101075.56;5157425;28;20028;-73
2023/04/16 08:30:20;;;;;;;25.02;12.60;;;;;;;9.10;100.00;101080.81;5172810;28;20029;-76
2023/04/16 08:32:51;;;;;;;26.27;13.05;;;;;;;9.10;100.00;101083.44;5156980;28;20018;-77
2023/04/16 08:35:21;;;;;;;26.17;10.95;;;;;;;9.02;100.00;101087.97;5177738;28;20034;-76
2023/04/16 08:37:53;;;;;;;22.38;11.63;;;;;;;8.95;100.00;101086.41;5177586;28;20112;-77
2023/04/16 08:40:27;;;;;;;23.83;12.25;;;;;;;9.01;100.00;101096.69;5173120;28;20507;-77
2023/04/16 08:43:01;;;;;;;23.25;11.45;;;;;;;8.91;100.00;101100.34;5172172;28;20048;-78
2023/04/16 08:45:34;;;;;;;21.42;10.95;;;;;;;8.81;100.00;101101.44;5177019;28;20174;-77
2023/04/16 08:48:05;;;;;;;24.73;11.77;;;;;;;8.86;100.00;101102.22;5144468;28;20809;-74
2023/04/16 08:50:36;;;;;;;21.27;11.13;;;;;;;8.97;100.00;101110.69;5158433;28;20045;-75
2023/04/16 08:53:10;;;;;;;23.92;10.75;;;;;;;9.02;100.00;101103.59;5159754;28;20481;-74
2023/04/16 08:55:46;;;;;;;21.77;10.52;;;;;;;9.01;100.00;101104.50;5150523;28;20030;-76
2023/04/16 08:58:27;;;;;;;23.17;10.52;;;;;;;9.11;100.00;101103.44;5160463;28;20101;-74
2023/04/16 09:00:58;;;;;;;21.17;10.30;;;;;;;9.13;100.00;101103.38;5158577;28;20030;-77
2023/04/16 09:03:30;;;;;;;20.38;10.50;;;;;;;9.06;100.00;101105.25;5171551;28;20709;-77
2023/04/16 09:06:03;;;;;;;21.02;10.80;;;;;;;8.94;100.00;101115.09;5174140;28;20041;-78
2023/04/16 09:08:34;;;;;;;20.17;10.55;;;;;;;9.01;100.00;101121.88;5177463;28;20536;-76
2023/04/16 09:11:05;;;;;;;17.52;9.55;;;;;;;8.99;100.00;101118.44;5179507;28;20570;-77
2023/04/16 09:13:36;;;;;;;20.85;9.90;;;;;;;9.11;100.00;101113.88;5157901;28;20030;-77
2023/04/16 09:16:08;;;;;;;16.50;8.48;;;;;;;8.87;100.00;101124.78;5173901;28;20172;-73
2023/04/16 09:18:38;;;;;;;17.25;8.18;;;;;;;8.88;100.00;101134.31;5161517;28;20539;-76
2023/04/16 09:21:10;;;;;;;19.00;8.77;;;;;;;8.93;100.00;101126.41;5135763;28;20159;-74
2023/04/16 09:23:40;;;;;;;19.42;9.48;;;;;;;9.03;100.00;101126.19;5169775;28;20021;-77
2023/04/16 09:26:11;;;;;;;15.32;8.77;;;;;;;9.05;100.00;101134.81;5172762;28;20048;-77
2023/04/16 09:28:45;;;;;;;18.33;9.15;;;;;;;9.01;100.00;101133.19;5175115;28;20021;-77
2023/04/16 09:31:18;;;;;;;13.57;8.07;;;;;;;9.04;100.00;101132.28;5156992;28;20061;-75
2023/04/16 09:34:06;;;;;;;16.60;8.75;;;;;;;9.01;100.00;101132.31;5167832;28;20069;-74
2023/04/16 09:36:36;;;;;;;19.15;9.52;;;;;;;8.99;100.00;101127.13;5146587;28;20048;-78
2023/04/16 09:39:17;;;;;;;14.73;8.57;;;;;;;9.02;100.00;101129.69;5150051;28;20038;-77
2023/04/16 09:41:53;;;;;;;17.05;8.82;;;;;;;9.04;100.00;101133.13;5163044;28;20119;-77
2023/04/16 09:44:37;;;;;;;20.42;9.80;;;;;;;9.07;100.00;101140.03;5164429;28;20025;-76
2023/04/16 09:47:08;;;;;;;18.50;9.90;;;;;;;9.13;100.00;101137.28;5161283;28;20037;-74
2023/04/16 09:49:42;;;;;;;18.35;9.52;;;;;;;9.07;100.00;101138.25;5161928;28;20490;-76
2023/04/16 09:52:17;;;;;;;18.90;10.60;;;;;;;9.04;100.00;101138.31;5167447;28;20137;-77
2023/04/16 09:54:52;;;;;;;21.17;10.65;;;;;;;9.11;100.00;101144.28;5157977;28;20197;-74
2023/04/16 09:57:23;;;;;;;22.67;12.13;;;;;;;9.20;100.00;101131.91;5171412;28;20042;-75
2023/04/16 10:00:00;;;;;;;21.10;10.38;;;;;;;9.24;100.00;101151.81;5163289;28;20022;-76
2023/04/16 10:02:33;;;;;;;24.27;11.43;;;;;;;9.17;100.00;101150.22;5166213;28;20047;-77
2023/04/16 10:05:04;;;;;;;21.52;11.15;;;;;;;9.26;100.00;101153.50;5175821;28;20026;-77
2023/04/16 10:07:36;;;;;;;23.58;10.40;;;;;;;9.21;100.00;101163.19;5167711;28;20565;-77
2023/04/16 10:10:06;;;;;;;19.75;10.73;;;;;;;9.11;100.00;101166.00;5165331;28;20483;-76
2023/04/16 10:12:37;;;;;;;23.10;11.95;;;;;;;9.03;100.00;101169.66;5176231;28;20045;-74
2023/04/16 10:15:08;;;;;;;25.48;11.80;;;;;;;9.07;100.00;101171.31;5149798;28;20498;-74
2023/04/16 10:17:38;;;;;;;22.15;11.38;;;;;;;9.04;100.00;101164.41;5164011;28;20605;-74
2023/04/16 10:20:09;;;;;;;27.45;12.68;;;;;;;9.14;100.00;101172.00;5158317;28;20056;-78
2023/04/16 10:22:40;;;;;;;23.33;11.30;;;;;;;9.21;100.00;101172.75;5177395;28;20659;-76
2023/04/16 10:25:11;;;;;;;28.65;12.57;;;;;;;9.10;100.00;101177.28;5172709;28;20107;-75
2023/04/16 10:27:43;;;;;;;29.17;11.68;;;;;;;9.07;100.00;101177.38;5176485;28;20474;-76
2023/04/16 10:30:14;;;;;;;23.40;12.05;;;;;;;9.14;100.00;101176.38;5152391;28;20444;-77
2023/04/16 10:32:45;;;;;;;29.75;11.63;;;;;;;9.19;100.00;101171.91;5176583;28;20383;-76
2023/04/16 10:35:19;;;;;;;24.48;11.88;;;;;;;9.27;100.00;101183.03;5156046;28;20036;-76
2023/04/16 10:37:55;;;;;;;25.65;12.07;;;;;;;9.33;100.00;101182.94;5166195;28;20052;-75
2023/04/16 10:40:26;;;;;;;22.02;11.65;;;;;;;9.38;100.00;101183.69;5166798;28;20594;-77
2023/04/16 10:42:58;;;;;;;22.58;11.80;;;;;;;9.60;100.00;101187.53;5147550;28;20650;-75
2023/04/16 10:45:36;;;;;;;21.23;11.30;;;;;;;9.59;100.00;101183.22;5174681;28;20045;-74
2023/04/16 10:48:10;;;;;;;32.13;13.52;;;;;;;9.59;100.00;101186.69;5180755;28;20042;-75
2023/04/16 10:50:40;;;;;;;23.90;12.30;;;;;;;9.67;100.00;101179.53;5161863;28;20025;-78
2023/04/16 10:53:25;;;;;;;24.25;11.57;;;;;;;9.71;100.00;101180.34;5174099;28;20037;-74
2023/04/16 10:56:14;;;;;;;24.80;11.80;;;;;;;9.77;100.00;101181.06;5175741;28;20033;-77
2023/04/16 10:58:44;;;;;;;30.92;14.18;;;;;;;9.81;100.00;101182.72;5164658;28;20042;-77
2023/04/16 11:01:15;;;;;;;23.65;11.88;;;;;;;9.74;100.00;101185.50;5167546;28;20562;-76
2023/04/16 11:03:46;;;;;;;28.00;12.63;;;;;;;9.75;100.00;101193.28;5172503;28;20049;-78
2023/04/16 11:06:23;;;;;;;21.42;11.75;;;;;;;9.67;100.00;101196.97;5158640;28;20026;-74
2023/04/16 11:08:54;;;;;;;22.95;10.98;;;;;;;9.78;100.00;101198.44;5160638;28;20511;-78
2023/04/16 11:11:26;;;;;;;20.35;10.82;;;;;;;9.70;100.00;101195.16;5175268;28;20030;-76
2023/04/16 11:13:56;;;;;;;18.92;10.65;;;;;;;9.68;100.00;101196.91;5168774;28;20061;-78
2023/04/16 11:16:30;;;;;;;22.90;11.25;;;;;;;9.68;100.00;101191.69;5161237;28;20026;-77
2023/04/16 11:19:00;;;;;;;25.00;11.93;;;;;;;9.70;100.00;101197.78;5178344;28;20064;-78
2023/04/16 11:21:31;;;;;;;25.95;12.25;;;;;;;9.76;100.00;101201.97;5160127;28;20026;-78
2023/04/16 11:24:01;;;;;;;27.00;12.20;;;;;;;9.61;100.00;101204.91;5175550;28;20041;-77
2023/04/16 11:26:32;;;;;;;23.20;12.00;;;;;;;9.52;100.00;101205.13;5173479;28;20031;-77